Terminal Aerodrome Forecast
Issued by NWS

Home | Current Version | Previous Version | Text Only | Print | Product List | Glossary On
Versions: 1 2 3 4 5 6 7 8 9 10 11 12 13 14 15 16 17 18
000
FTUS42 KMLB 021720
TAFISM
TAF
KISM 021720Z 0218/0318 21015G23KT P6SM VCTS SCT020CB BKN080
      TEMPO 0218/0220 24015G30KT 3SM TSRA BKN020CB OVC040
     FM022200 22010KT P6SM VCSH SCT030 OVC060
     FM030300 19006KT P6SM FEW035 BKN090 OVC200=

USA.gov is the U.S. government's official web portal to all federal, state and local government web resources and services.